sensor_id;sensor_type;location;lat;lon;timestamp;P1;durP1;ratioP1;P2;durP2;ratioP2
48853;SDS011;34673;52.808;17.856;2022-11-11T00:00:58;24.00;;;9.15;;
48853;SDS011;34673;52.808;17.856;2022-11-11T00:03:47;19.40;;;7.72;;
48853;SDS011;34673;52.808;17.856;2022-11-11T00:06:33;23.42;;;8.77;;
48853;SDS011;34673;52.808;17.856;2022-11-11T00:09:19;21.48;;;8.82;;
48853;SDS011;34673;52.808;17.856;2022-11-11T00:12:05;17.52;;;8.02;;
48853;SDS011;34673;52.808;17.856;2022-11-11T00:14:51;17.92;;;7.82;;
48853;SDS011;34673;52.808;17.856;2022-11-11T00:17:37;20.52;;;8.25;;
48853;SDS011;34673;52.808;17.856;2022-11-11T00:20:42;20.35;;;8.25;;
48853;SDS011;34673;52.808;17.856;2022-11-11T00:23:46;18.70;;;7.80;;
48853;SDS011;34673;52.808;17.856;2022-11-11T00:26:51;19.38;;;7.93;;
48853;SDS011;34673;52.808;17.856;2022-11-11T00:29:37;20.15;;;7.93;;
48853;SDS011;34673;52.808;17.856;2022-11-11T00:32:23;23.77;;;8.63;;
48853;SDS011;34673;52.808;17.856;2022-11-11T00:35:12;21.45;;;8.48;;
48853;SDS011;34673;52.808;17.856;2022-11-11T00:38:16;19.80;;;7.70;;
48853;SDS011;34673;52.808;17.856;2022-11-11T00:41:21;19.00;;;8.38;;
48853;SDS011;34673;52.808;17.856;2022-11-11T00:44:08;20.08;;;8.45;;
48853;SDS011;34673;52.808;17.856;2022-11-11T00:46:54;20.40;;;7.90;;
48853;SDS011;34673;52.808;17.856;2022-11-11T00:49:59;18.35;;;8.18;;
48853;SDS011;34673;52.808;17.856;2022-11-11T00:53:04;19.30;;;7.80;;
48853;SDS011;34673;52.808;17.856;2022-11-11T00:55:56;19.48;;;7.68;;
48853;SDS011;34673;52.808;17.856;2022-11-11T00:58:42;18.33;;;7.15;;
48853;SDS011;34673;52.808;17.856;2022-11-11T01:01:28;22.38;;;7.63;;
48853;SDS011;34673;52.808;17.856;2022-11-11T01:04:14;17.73;;;6.82;;
48853;SDS011;34673;52.808;17.856;2022-11-11T01:07:00;16.08;;;7.47;;
48853;SDS011;34673;52.808;17.856;2022-11-11T01:09:46;14.15;;;7.32;;
48853;SDS011;34673;52.808;17.856;2022-11-11T01:12:31;15.70;;;7.13;;
48853;SDS011;34673;52.808;17.856;2022-11-11T01:15:18;21.02;;;6.97;;
48853;SDS011;34673;52.808;17.856;2022-11-11T01:18:03;20.33;;;7.25;;
48853;SDS011;34673;52.808;17.856;2022-11-11T01:24:05;19.83;;;7.05;;
48853;SDS011;34673;52.808;17.856;2022-11-11T01:26:51;16.65;;;7.00;;
48853;SDS011;34673;52.808;17.856;2022-11-11T01:29:37;17.17;;;6.57;;
48853;SDS011;34673;52.808;17.856;2022-11-11T01:32:23;19.05;;;6.93;;
48853;SDS011;34673;52.808;17.856;2022-11-11T01:35:09;15.85;;;7.03;;
48853;SDS011;34673;52.808;17.856;2022-11-11T01:37:55;19.13;;;7.00;;
48853;SDS011;34673;52.808;17.856;2022-11-11T01:40:43;15.70;;;6.53;;
48853;SDS011;34673;52.808;17.856;2022-11-11T01:43:30;16.80;;;7.40;;
48853;SDS011;34673;52.808;17.856;2022-11-11T01:46:22;16.52;;;7.15;;
48853;SDS011;34673;52.808;17.856;2022-11-11T01:55:15;19.02;;;7.13;;
48853;SDS011;34673;52.808;17.856;2022-11-11T01:58:05;20.13;;;7.13;;
48853;SDS011;34673;52.808;17.856;2022-11-11T02:00:57;18.20;;;6.85;;
48853;SDS011;34673;52.808;17.856;2022-11-11T02:03:45;17.95;;;7.40;;
48853;SDS011;34673;52.808;17.856;2022-11-11T02:06:52;18.55;;;6.90;;
48853;SDS011;34673;52.808;17.856;2022-11-11T02:09:41;16.15;;;7.10;;
48853;SDS011;34673;52.808;17.856;2022-11-11T02:12:31;17.58;;;6.78;;
48853;SDS011;34673;52.808;17.856;2022-11-11T02:15:36;17.25;;;7.13;;
48853;SDS011;34673;52.808;17.856;2022-11-11T02:18:23;20.52;;;6.40;;
48853;SDS011;34673;52.808;17.856;2022-11-11T02:21:13;16.83;;;6.72;;
48853;SDS011;34673;52.808;17.856;2022-11-11T02:24:13;18.75;;;7.10;;
48853;SDS011;34673;52.808;17.856;2022-11-11T02:27:03;25.00;;;7.15;;
48853;SDS011;34673;52.808;17.856;2022-11-11T02:29:54;15.68;;;6.43;;
48853;SDS011;34673;52.808;17.856;2022-11-11T02:32:43;19.37;;;6.60;;
48853;SDS011;34673;52.808;17.856;2022-11-11T02:35:36;16.60;;;5.97;;
48853;SDS011;34673;52.808;17.856;2022-11-11T02:38:23;15.00;;;6.38;;
48853;SDS011;34673;52.808;17.856;2022-11-11T02:41:10;16.55;;;6.20;;
48853;SDS011;34673;52.808;17.856;2022-11-11T02:44:15;12.63;;;5.97;;
48853;SDS011;34673;52.808;17.856;2022-11-11T02:47:01;18.70;;;6.35;;
48853;SDS011;34673;52.808;17.856;2022-11-11T02:49:47;15.15;;;6.05;;
48853;SDS011;34673;52.808;17.856;2022-11-11T02:52:33;16.15;;;6.22;;
48853;SDS011;34673;52.808;17.856;2022-11-11T02:55:19;16.08;;;6.28;;
48853;SDS011;34673;52.808;17.856;2022-11-11T02:58:05;18.92;;;5.93;;
48853;SDS011;34673;52.808;17.856;2022-11-11T03:00:51;15.93;;;5.95;;
48853;SDS011;34673;52.808;17.856;2022-11-11T03:03:37;13.80;;;5.72;;
48853;SDS011;34673;52.808;17.856;2022-11-11T03:06:22;20.15;;;5.80;;
48853;SDS011;34673;52.808;17.856;2022-11-11T03:09:08;15.95;;;5.70;;
48853;SDS011;34673;52.808;17.856;2022-11-11T03:11:55;15.52;;;5.97;;
48853;SDS011;34673;52.808;17.856;2022-11-11T03:14:41;18.85;;;5.60;;
48853;SDS011;34673;52.808;17.856;2022-11-11T03:17:28;17.05;;;6.35;;
48853;SDS011;34673;52.808;17.856;2022-11-11T03:20:26;16.10;;;5.30;;
48853;SDS011;34673;52.808;17.856;2022-11-11T03:23:31;20.00;;;6.30;;
48853;SDS011;34673;52.808;17.856;2022-11-11T03:26:17;15.07;;;5.43;;
48853;SDS011;34673;52.808;17.856;2022-11-11T03:29:03;18.42;;;5.28;;
48853;SDS011;34673;52.808;17.856;2022-11-11T03:31:49;14.55;;;5.75;;
48853;SDS011;34673;52.808;17.856;2022-11-11T03:34:35;17.48;;;6.65;;
48853;SDS011;34673;52.808;17.856;2022-11-11T03:37:21;14.25;;;5.28;;
48853;SDS011;34673;52.808;17.856;2022-11-11T03:40:26;18.17;;;6.35;;
48853;SDS011;34673;52.808;17.856;2022-11-11T03:43:13;20.25;;;6.00;;
48853;SDS011;34673;52.808;17.856;2022-11-11T03:46:01;18.70;;;5.70;;
48853;SDS011;34673;52.808;17.856;2022-11-11T03:48:48;12.27;;;5.90;;
48853;SDS011;34673;52.808;17.856;2022-11-11T03:51:34;18.13;;;6.15;;
48853;SDS011;34673;52.808;17.856;2022-11-11T03:54:20;14.43;;;5.70;;
48853;SDS011;34673;52.808;17.856;2022-11-11T03:57:06;16.13;;;6.00;;
48853;SDS011;34673;52.808;17.856;2022-11-11T04:00:16;16.55;;;6.45;;
48853;SDS011;34673;52.808;17.856;2022-11-11T04:06:09;16.23;;;5.85;;
48853;SDS011;34673;52.808;17.856;2022-11-11T04:09:14;17.40;;;6.05;;
48853;SDS011;34673;52.808;17.856;2022-11-11T04:12:19;17.05;;;6.38;;
48853;SDS011;34673;52.808;17.856;2022-11-11T04:15:06;14.35;;;5.93;;
48853;SDS011;34673;52.808;17.856;2022-11-11T04:18:11;12.68;;;5.38;;
48853;SDS011;34673;52.808;17.856;2022-11-11T04:20:57;15.85;;;6.47;;
48853;SDS011;34673;52.808;17.856;2022-11-11T04:24:02;16.15;;;6.35;;
48853;SDS011;34673;52.808;17.856;2022-11-11T04:27:09;14.57;;;5.57;;
48853;SDS011;34673;52.808;17.856;2022-11-11T04:29:57;18.20;;;5.88;;
48853;SDS011;34673;52.808;17.856;2022-11-11T04:32:44;15.77;;;6.18;;
48853;SDS011;34673;52.808;17.856;2022-11-11T04:35:32;14.55;;;6.50;;
48853;SDS011;34673;52.808;17.856;2022-11-11T04:38:17;15.45;;;6.18;;
48853;SDS011;34673;52.808;17.856;2022-11-11T04:41:22;14.05;;;5.55;;
48853;SDS011;34673;52.808;17.856;2022-11-11T04:44:28;17.38;;;6.63;;
48853;SDS011;34673;52.808;17.856;2022-11-11T04:47:33;22.10;;;6.20;;
48853;SDS011;34673;52.808;17.856;2022-11-11T04:50:19;16.27;;;5.85;;
48853;SDS011;34673;52.808;17.856;2022-11-11T04:53:09;14.95;;;6.63;;
48853;SDS011;34673;52.808;17.856;2022-11-11T04:55:57;15.98;;;6.20;;
48853;SDS011;34673;52.808;17.856;2022-11-11T04:59:01;16.05;;;5.90;;
48853;SDS011;34673;52.808;17.856;2022-11-11T05:02:02;15.80;;;6.63;;
48853;SDS011;34673;52.808;17.856;2022-11-11T05:05:07;13.75;;;5.80;;
48853;SDS011;34673;52.808;17.856;2022-11-11T05:07:53;15.73;;;6.22;;
48853;SDS011;34673;52.808;17.856;2022-11-11T05:10:58;19.30;;;6.05;;
48853;SDS011;34673;52.808;17.856;2022-11-11T05:13:44;19.02;;;6.53;;
48853;SDS011;34673;52.808;17.856;2022-11-11T05:16:50;18.80;;;6.45;;
48853;SDS011;34673;52.808;17.856;2022-11-11T05:19:54;17.23;;;6.22;;
48853;SDS011;34673;52.808;17.856;2022-11-11T05:22:59;15.07;;;5.80;;
48853;SDS011;34673;52.808;17.856;2022-11-11T05:25:45;18.75;;;5.82;;
48853;SDS011;34673;52.808;17.856;2022-11-11T05:28:31;18.05;;;5.82;;
48853;SDS011;34673;52.808;17.856;2022-11-11T05:31:16;15.18;;;5.60;;
48853;SDS011;34673;52.808;17.856;2022-11-11T05:34:02;14.95;;;5.78;;
48853;SDS011;34673;52.808;17.856;2022-11-11T05:36:47;16.67;;;6.05;;
48853;SDS011;34673;52.808;17.856;2022-11-11T05:39:33;19.58;;;5.95;;
48853;SDS011;34673;52.808;17.856;2022-11-11T05:42:20;18.38;;;6.45;;
48853;SDS011;34673;52.808;17.856;2022-11-11T05:45:06;17.92;;;5.80;;
48853;SDS011;34673;52.808;17.856;2022-11-11T05:47:53;13.50;;;5.43;;
48853;SDS011;34673;52.808;17.856;2022-11-11T05:50:38;12.02;;;5.68;;
48853;SDS011;34673;52.808;17.856;2022-11-11T05:53:26;18.98;;;5.97;;
48853;SDS011;34673;52.808;17.856;2022-11-11T05:56:12;16.33;;;5.88;;
48853;SDS011;34673;52.808;17.856;2022-11-11T05:58:58;14.40;;;5.95;;
48853;SDS011;34673;52.808;17.856;2022-11-11T06:01:44;15.93;;;5.95;;
48853;SDS011;34673;52.808;17.856;2022-11-11T06:04:30;20.63;;;5.95;;
48853;SDS011;34673;52.808;17.856;2022-11-11T06:07:18;18.10;;;5.72;;
48853;SDS011;34673;52.808;17.856;2022-11-11T06:10:04;18.83;;;6.20;;
48853;SDS011;34673;52.808;17.856;2022-11-11T06:13:23;19.13;;;6.25;;
48853;SDS011;34673;52.808;17.856;2022-11-11T06:16:09;13.38;;;5.57;;
48853;SDS011;34673;52.808;17.856;2022-11-11T06:18:55;15.43;;;6.38;;
48853;SDS011;34673;52.808;17.856;2022-11-11T06:21:41;15.85;;;6.13;;
48853;SDS011;34673;52.808;17.856;2022-11-11T06:24:42;15.98;;;6.15;;
48853;SDS011;34673;52.808;17.856;2022-11-11T06:27:48;13.43;;;5.57;;
48853;SDS011;34673;52.808;17.856;2022-11-11T06:30:34;19.52;;;6.05;;
48853;SDS011;34673;52.808;17.856;2022-11-11T06:33:36;16.95;;;5.25;;
48853;SDS011;34673;52.808;17.856;2022-11-11T06:36:22;14.77;;;6.15;;
48853;SDS011;34673;52.808;17.856;2022-11-11T06:39:08;16.83;;;5.57;;
48853;SDS011;34673;52.808;17.856;2022-11-11T06:41:54;13.00;;;5.20;;
48853;SDS011;34673;52.808;17.856;2022-11-11T06:44:40;16.67;;;5.80;;
48853;SDS011;34673;52.808;17.856;2022-11-11T06:47:26;18.33;;;5.57;;
48853;SDS011;34673;52.808;17.856;2022-11-11T06:50:12;16.77;;;5.72;;
48853;SDS011;34673;52.808;17.856;2022-11-11T06:53:08;15.75;;;5.45;;
48853;SDS011;34673;52.808;17.856;2022-11-11T06:55:55;11.88;;;5.07;;
48853;SDS011;34673;52.808;17.856;2022-11-11T06:58:42;13.90;;;5.63;;
48853;SDS011;34673;52.808;17.856;2022-11-11T07:01:29;13.75;;;5.60;;
48853;SDS011;34673;52.808;17.856;2022-11-11T07:04:16;14.70;;;5.50;;
48853;SDS011;34673;52.808;17.856;2022-11-11T07:07:01;16.42;;;6.32;;
48853;SDS011;34673;52.808;17.856;2022-11-11T07:09:47;14.75;;;5.45;;
48853;SDS011;34673;52.808;17.856;2022-11-11T07:12:33;14.32;;;6.35;;
48853;SDS011;34673;52.808;17.856;2022-11-11T07:15:19;18.20;;;6.22;;
48853;SDS011;34673;52.808;17.856;2022-11-11T07:18:05;17.70;;;6.00;;
48853;SDS011;34673;52.808;17.856;2022-11-11T07:20:51;17.98;;;5.53;;
48853;SDS011;34673;52.808;17.856;2022-11-11T07:23:37;15.90;;;5.15;;
48853;SDS011;34673;52.808;17.856;2022-11-11T07:26:23;14.27;;;5.97;;
48853;SDS011;34673;52.808;17.856;2022-11-11T07:29:09;17.30;;;5.97;;
48853;SDS011;34673;52.808;17.856;2022-11-11T07:31:56;14.75;;;5.55;;
48853;SDS011;34673;52.808;17.856;2022-11-11T07:34:42;18.75;;;6.22;;
48853;SDS011;34673;52.808;17.856;2022-11-11T07:37:31;14.25;;;5.55;;
48853;SDS011;34673;52.808;17.856;2022-11-11T07:40:17;13.93;;;5.40;;
48853;SDS011;34673;52.808;17.856;2022-11-11T07:43:04;16.73;;;6.38;;
48853;SDS011;34673;52.808;17.856;2022-11-11T07:45:50;15.25;;;5.95;;
48853;SDS011;34673;52.808;17.856;2022-11-11T07:48:36;15.40;;;5.85;;
48853;SDS011;34673;52.808;17.856;2022-11-11T07:51:22;13.35;;;4.85;;
48853;SDS011;34673;52.808;17.856;2022-11-11T07:54:08;17.95;;;6.78;;
48853;SDS011;34673;52.808;17.856;2022-11-11T07:56:54;11.85;;;4.85;;
48853;SDS011;34673;52.808;17.856;2022-11-11T07:59:40;14.25;;;5.57;;
48853;SDS011;34673;52.808;17.856;2022-11-11T08:02:26;11.68;;;5.70;;
48853;SDS011;34673;52.808;17.856;2022-11-11T08:05:12;16.55;;;5.72;;
48853;SDS011;34673;52.808;17.856;2022-11-11T08:08:06;13.73;;;5.40;;
48853;SDS011;34673;52.808;17.856;2022-11-11T08:10:53;12.77;;;5.10;;
48853;SDS011;34673;52.808;17.856;2022-11-11T08:13:40;15.00;;;5.28;;
48853;SDS011;34673;52.808;17.856;2022-11-11T08:16:28;14.18;;;5.75;;
48853;SDS011;34673;52.808;17.856;2022-11-11T08:19:14;15.32;;;5.75;;
48853;SDS011;34673;52.808;17.856;2022-11-11T08:21:59;18.20;;;6.40;;
48853;SDS011;34673;52.808;17.856;2022-11-11T08:24:45;13.23;;;4.90;;
48853;SDS011;34673;52.808;17.856;2022-11-11T08:27:55;14.45;;;5.20;;
48853;SDS011;34673;52.808;17.856;2022-11-11T08:30:48;15.48;;;5.00;;
48853;SDS011;34673;52.808;17.856;2022-11-11T08:33:33;16.65;;;5.97;;
48853;SDS011;34673;52.808;17.856;2022-11-11T08:36:20;17.20;;;5.15;;
48853;SDS011;34673;52.808;17.856;2022-11-11T08:39:07;14.38;;;4.68;;
48853;SDS011;34673;52.808;17.856;2022-11-11T08:41:53;13.45;;;4.63;;
48853;SDS011;34673;52.808;17.856;2022-11-11T08:44:39;13.05;;;5.10;;
48853;SDS011;34673;52.808;17.856;2022-11-11T08:47:25;11.00;;;5.32;;
48853;SDS011;34673;52.808;17.856;2022-11-11T08:50:11;12.40;;;4.88;;
48853;SDS011;34673;52.808;17.856;2022-11-11T08:52:57;12.30;;;4.82;;
48853;SDS011;34673;52.808;17.856;2022-11-11T08:55:43;14.05;;;5.05;;
48853;SDS011;34673;52.808;17.856;2022-11-11T08:58:30;16.60;;;5.82;;
48853;SDS011;34673;52.808;17.856;2022-11-11T09:01:16;12.25;;;4.82;;
48853;SDS011;34673;52.808;17.856;2022-11-11T09:04:02;13.65;;;5.13;;
48853;SDS011;34673;52.808;17.856;2022-11-11T09:07:10;15.40;;;5.22;;
48853;SDS011;34673;52.808;17.856;2022-11-11T09:09:57;14.98;;;5.10;;
48853;SDS011;34673;52.808;17.856;2022-11-11T09:12:44;16.30;;;5.95;;
48853;SDS011;34673;52.808;17.856;2022-11-11T09:15:30;14.15;;;5.97;;
48853;SDS011;34673;52.808;17.856;2022-11-11T09:18:16;13.73;;;5.78;;
48853;SDS011;34673;52.808;17.856;2022-11-11T09:21:02;16.05;;;5.85;;
48853;SDS011;34673;52.808;17.856;2022-11-11T09:23:48;13.75;;;6.18;;
48853;SDS011;34673;52.808;17.856;2022-11-11T09:26:34;13.93;;;5.30;;
48853;SDS011;34673;52.808;17.856;2022-11-11T09:29:20;14.88;;;5.88;;
48853;SDS011;34673;52.808;17.856;2022-11-11T09:32:06;14.05;;;6.13;;
48853;SDS011;34673;52.808;17.856;2022-11-11T09:34:52;14.75;;;5.95;;
48853;SDS011;34673;52.808;17.856;2022-11-11T09:37:39;15.70;;;6.32;;
48853;SDS011;34673;52.808;17.856;2022-11-11T09:40:26;14.27;;;5.72;;
48853;SDS011;34673;52.808;17.856;2022-11-11T09:55:39;13.43;;;5.10;;
48853;SDS011;34673;52.808;17.856;2022-11-11T09:58:33;11.70;;;5.00;;
48853;SDS011;34673;52.808;17.856;2022-11-11T10:01:26;13.38;;;5.25;;
48853;SDS011;34673;52.808;17.856;2022-11-11T10:07:13;14.60;;;5.13;;
48853;SDS011;34673;52.808;17.856;2022-11-11T10:13:34;10.25;;;4.57;;
48853;SDS011;34673;52.808;17.856;2022-11-11T10:19:30;12.95;;;4.65;;
48853;SDS011;34673;52.808;17.856;2022-11-11T10:22:27;12.15;;;5.10;;
48853;SDS011;34673;52.808;17.856;2022-11-11T10:25:29;15.35;;;5.10;;
48853;SDS011;34673;52.808;17.856;2022-11-11T10:28:19;13.07;;;4.72;;
48853;SDS011;34673;52.808;17.856;2022-11-11T10:31:17;13.35;;;5.00;;
48853;SDS011;34673;52.808;17.856;2022-11-11T10:34:09;16.63;;;4.78;;
48853;SDS011;34673;52.808;17.856;2022-11-11T10:36:57;11.60;;;4.78;;
48853;SDS011;34673;52.808;17.856;2022-11-11T10:39:47;17.23;;;5.03;;
48853;SDS011;34673;52.808;17.856;2022-11-11T10:42:38;12.20;;;4.80;;
48853;SDS011;34673;52.808;17.856;2022-11-11T10:48:36;12.73;;;4.40;;
48853;SDS011;34673;52.808;17.856;2022-11-11T10:51:46;15.82;;;4.80;;
48853;SDS011;34673;52.808;17.856;2022-11-11T10:55:01;11.98;;;4.45;;
48853;SDS011;34673;52.808;17.856;2022-11-11T10:57:54;15.55;;;5.22;;
48853;SDS011;34673;52.808;17.856;2022-11-11T11:00:49;10.52;;;4.30;;
48853;SDS011;34673;52.808;17.856;2022-11-11T11:03:41;13.77;;;4.75;;
48853;SDS011;34673;52.808;17.856;2022-11-11T11:06:30;11.45;;;4.72;;
48853;SDS011;34673;52.808;17.856;2022-11-11T11:09:29;12.65;;;4.80;;
48853;SDS011;34673;52.808;17.856;2022-11-11T11:15:20;12.45;;;4.55;;
48853;SDS011;34673;52.808;17.856;2022-11-11T11:18:10;11.65;;;4.90;;
48853;SDS011;34673;52.808;17.856;2022-11-11T11:20:59;14.38;;;5.30;;
48853;SDS011;34673;52.808;17.856;2022-11-11T11:23:46;13.20;;;5.30;;
48853;SDS011;34673;52.808;17.856;2022-11-11T11:26:45;12.43;;;4.50;;
48853;SDS011;34673;52.808;17.856;2022-11-11T11:29:39;13.32;;;4.90;;
48853;SDS011;34673;52.808;17.856;2022-11-11T11:32:27;12.27;;;4.65;;
48853;SDS011;34673;52.808;17.856;2022-11-11T11:38:40;12.60;;;4.85;;
48853;SDS011;34673;52.808;17.856;2022-11-11T11:41:44;14.30;;;4.55;;
48853;SDS011;34673;52.808;17.856;2022-11-11T11:44:37;13.32;;;4.88;;
48853;SDS011;34673;52.808;17.856;2022-11-11T11:47:37;11.25;;;4.93;;
48853;SDS011;34673;52.808;17.856;2022-11-11T11:51:07;13.93;;;5.10;;
48853;SDS011;34673;52.808;17.856;2022-11-11T12:00:30;13.27;;;4.60;;
48853;SDS011;34673;52.808;17.856;2022-11-11T12:15:38;10.63;;;4.15;;
48853;SDS011;34673;52.808;17.856;2022-11-11T12:21:14;12.30;;;4.28;;
48853;SDS011;34673;52.808;17.856;2022-11-11T12:27:24;16.35;;;5.85;;
48853;SDS011;34673;52.808;17.856;2022-11-11T12:30:22;12.88;;;4.95;;
48853;SDS011;34673;52.808;17.856;2022-11-11T12:33:34;9.82;;;4.38;;
48853;SDS011;34673;52.808;17.856;2022-11-11T12:48:53;10.93;;;4.40;;
48853;SDS011;34673;52.808;17.856;2022-11-11T13:04:27;27.67;;;11.07;;
48853;SDS011;34673;52.808;17.856;2022-11-11T13:13:54;14.43;;;5.47;;
48853;SDS011;34673;52.808;17.856;2022-11-11T13:16:51;13.35;;;5.97;;
48853;SDS011;34673;52.808;17.856;2022-11-11T13:19:53;13.23;;;5.85;;
48853;SDS011;34673;52.808;17.856;2022-11-11T13:22:44;11.95;;;6.03;;
48853;SDS011;34673;52.808;17.856;2022-11-11T13:28:33;13.60;;;6.00;;
48853;SDS011;34673;52.808;17.856;2022-11-11T13:31:32;11.48;;;5.72;;
48853;SDS011;34673;52.808;17.856;2022-11-11T13:34:21;22.92;;;9.02;;
48853;SDS011;34673;52.808;17.856;2022-11-11T13:37:17;16.25;;;8.25;;
48853;SDS011;34673;52.808;17.856;2022-11-11T13:40:18;11.85;;;6.28;;
48853;SDS011;34673;52.808;17.856;2022-11-11T13:43:16;14.90;;;5.78;;
48853;SDS011;34673;52.808;17.856;2022-11-11T13:46:06;22.17;;;9.20;;
48853;SDS011;34673;52.808;17.856;2022-11-11T13:49:23;17.40;;;7.85;;
48853;SDS011;34673;52.808;17.856;2022-11-11T13:52:25;18.15;;;8.07;;
48853;SDS011;34673;52.808;17.856;2022-11-11T13:55:49;16.23;;;7.72;;
48853;SDS011;34673;52.808;17.856;2022-11-11T13:58:30;14.07;;;6.65;;
48853;SDS011;34673;52.808;17.856;2022-11-11T14:01:19;17.27;;;7.38;;
48853;SDS011;34673;52.808;17.856;2022-11-11T14:04:07;12.98;;;6.30;;
48853;SDS011;34673;52.808;17.856;2022-11-11T14:06:54;15.65;;;7.25;;
48853;SDS011;34673;52.808;17.856;2022-11-11T14:12:43;13.45;;;6.05;;
48853;SDS011;34673;52.808;17.856;2022-11-11T14:18:32;12.95;;;5.65;;
48853;SDS011;34673;52.808;17.856;2022-11-11T14:27:26;15.93;;;6.68;;
48853;SDS011;34673;52.808;17.856;2022-11-11T14:30:31;13.35;;;7.00;;
48853;SDS011;34673;52.808;17.856;2022-11-11T14:33:55;13.43;;;6.15;;
48853;SDS011;34673;52.808;17.856;2022-11-11T14:36:48;13.73;;;6.35;;
48853;SDS011;34673;52.808;17.856;2022-11-11T14:39:52;15.32;;;7.30;;
48853;SDS011;34673;52.808;17.856;2022-11-11T14:52:00;13.45;;;6.78;;
48853;SDS011;34673;52.808;17.856;2022-11-11T15:00:43;13.18;;;6.53;;
48853;SDS011;34673;52.808;17.856;2022-11-11T15:03:50;15.18;;;6.38;;
48853;SDS011;34673;52.808;17.856;2022-11-11T15:09:51;13.65;;;6.55;;
48853;SDS011;34673;52.808;17.856;2022-11-11T15:12:53;17.92;;;8.13;;
48853;SDS011;34673;52.808;17.856;2022-11-11T15:21:57;13.70;;;6.80;;
48853;SDS011;34673;52.808;17.856;2022-11-11T15:24:54;15.05;;;7.07;;
48853;SDS011;34673;52.808;17.856;2022-11-11T15:34:00;15.57;;;6.15;;
48853;SDS011;34673;52.808;17.856;2022-11-11T15:37:00;14.30;;;6.40;;
48853;SDS011;34673;52.808;17.856;2022-11-11T15:39:53;14.63;;;6.50;;
48853;SDS011;34673;52.808;17.856;2022-11-11T15:42:42;13.82;;;5.85;;
48853;SDS011;34673;52.808;17.856;2022-11-11T15:45:32;12.52;;;6.30;;
48853;SDS011;34673;52.808;17.856;2022-11-11T15:48:22;13.93;;;6.15;;
48853;SDS011;34673;52.808;17.856;2022-11-11T15:51:16;9.77;;;5.43;;
48853;SDS011;34673;52.808;17.856;2022-11-11T15:54:18;11.85;;;6.38;;
48853;SDS011;34673;52.808;17.856;2022-11-11T16:03:20;15.45;;;7.82;;
48853;SDS011;34673;52.808;17.856;2022-11-11T16:06:14;13.07;;;6.60;;
48853;SDS011;34673;52.808;17.856;2022-11-11T16:09:00;14.15;;;5.50;;
48853;SDS011;34673;52.808;17.856;2022-11-11T16:11:48;12.65;;;5.63;;
48853;SDS011;34673;52.808;17.856;2022-11-11T16:14:38;13.00;;;5.40;;
48853;SDS011;34673;52.808;17.856;2022-11-11T16:17:29;15.07;;;6.10;;
48853;SDS011;34673;52.808;17.856;2022-11-11T16:20:24;14.45;;;6.10;;
48853;SDS011;34673;52.808;17.856;2022-11-11T16:23:24;16.80;;;6.15;;
48853;SDS011;34673;52.808;17.856;2022-11-11T16:26:12;11.32;;;6.13;;
48853;SDS011;34673;52.808;17.856;2022-11-11T16:28:59;15.90;;;6.22;;
48853;SDS011;34673;52.808;17.856;2022-11-11T16:31:46;12.10;;;6.55;;
48853;SDS011;34673;52.808;17.856;2022-11-11T16:34:32;14.40;;;6.13;;
48853;SDS011;34673;52.808;17.856;2022-11-11T16:37:27;13.32;;;5.72;;
48853;SDS011;34673;52.808;17.856;2022-11-11T16:43:24;12.48;;;5.53;;
48853;SDS011;34673;52.808;17.856;2022-11-11T16:49:32;12.55;;;5.55;;
48853;SDS011;34673;52.808;17.856;2022-11-11T16:52:25;14.35;;;5.47;;
48853;SDS011;34673;52.808;17.856;2022-11-11T16:55:26;15.65;;;5.95;;
48853;SDS011;34673;52.808;17.856;2022-11-11T16:58:16;12.65;;;5.50;;
48853;SDS011;34673;52.808;17.856;2022-11-11T17:01:05;17.58;;;8.25;;
48853;SDS011;34673;52.808;17.856;2022-11-11T17:03:53;12.50;;;5.28;;
48853;SDS011;34673;52.808;17.856;2022-11-11T17:06:54;13.52;;;5.45;;
48853;SDS011;34673;52.808;17.856;2022-11-11T17:09:44;13.10;;;5.38;;
48853;SDS011;34673;52.808;17.856;2022-11-11T17:12:30;15.85;;;6.07;;
48853;SDS011;34673;52.808;17.856;2022-11-11T17:15:17;13.57;;;5.15;;
48853;SDS011;34673;52.808;17.856;2022-11-11T17:18:04;14.00;;;5.15;;
48853;SDS011;34673;52.808;17.856;2022-11-11T17:20:53;10.50;;;5.55;;
48853;SDS011;34673;52.808;17.856;2022-11-11T17:23:40;11.77;;;5.13;;
48853;SDS011;34673;52.808;17.856;2022-11-11T17:26:26;12.45;;;5.45;;
48853;SDS011;34673;52.808;17.856;2022-11-11T17:29:13;11.27;;;4.70;;
48853;SDS011;34673;52.808;17.856;2022-11-11T17:31:59;12.93;;;5.68;;
48853;SDS011;34673;52.808;17.856;2022-11-11T17:34:45;12.68;;;4.82;;
48853;SDS011;34673;52.808;17.856;2022-11-11T17:37:34;17.88;;;5.25;;
48853;SDS011;34673;52.808;17.856;2022-11-11T17:40:24;9.82;;;5.05;;
48853;SDS011;34673;52.808;17.856;2022-11-11T17:43:10;15.20;;;6.18;;
48853;SDS011;34673;52.808;17.856;2022-11-11T17:46:00;9.98;;;4.75;;
48853;SDS011;34673;52.808;17.856;2022-11-11T17:51:32;12.50;;;5.50;;
48853;SDS011;34673;52.808;17.856;2022-11-11T17:54:18;10.25;;;5.30;;
48853;SDS011;34673;52.808;17.856;2022-11-11T17:57:04;13.70;;;5.93;;
48853;SDS011;34673;52.808;17.856;2022-11-11T17:59:50;14.52;;;6.22;;
48853;SDS011;34673;52.808;17.856;2022-11-11T18:02:36;16.27;;;5.78;;
48853;SDS011;34673;52.808;17.856;2022-11-11T18:05:22;11.70;;;5.72;;
48853;SDS011;34673;52.808;17.856;2022-11-11T18:08:08;10.88;;;5.95;;
48853;SDS011;34673;52.808;17.856;2022-11-11T18:11:04;12.40;;;6.30;;
48853;SDS011;34673;52.808;17.856;2022-11-11T18:13:52;15.52;;;7.70;;
48853;SDS011;34673;52.808;17.856;2022-11-11T18:16:39;13.00;;;7.00;;
48853;SDS011;34673;52.808;17.856;2022-11-11T18:19:25;14.93;;;7.82;;
48853;SDS011;34673;52.808;17.856;2022-11-11T18:22:11;14.27;;;7.05;;
48853;SDS011;34673;52.808;17.856;2022-11-11T18:24:57;13.13;;;6.55;;
48853;SDS011;34673;52.808;17.856;2022-11-11T18:27:43;16.25;;;6.80;;
48853;SDS011;34673;52.808;17.856;2022-11-11T18:30:29;15.15;;;7.40;;
48853;SDS011;34673;52.808;17.856;2022-11-11T18:33:15;17.23;;;8.43;;
48853;SDS011;34673;52.808;17.856;2022-11-11T18:36:04;23.00;;;8.27;;
48853;SDS011;34673;52.808;17.856;2022-11-11T18:38:53;17.67;;;7.22;;
48853;SDS011;34673;52.808;17.856;2022-11-11T18:41:40;17.45;;;9.38;;
48853;SDS011;34673;52.808;17.856;2022-11-11T18:44:26;17.00;;;7.85;;
48853;SDS011;34673;52.808;17.856;2022-11-11T18:47:12;19.45;;;8.48;;
48853;SDS011;34673;52.808;17.856;2022-11-11T18:49:58;13.82;;;6.75;;
48853;SDS011;34673;52.808;17.856;2022-11-11T18:52:44;15.25;;;7.32;;
48853;SDS011;34673;52.808;17.856;2022-11-11T18:55:29;14.60;;;6.97;;
48853;SDS011;34673;52.808;17.856;2022-11-11T18:58:17;15.20;;;7.07;;
48853;SDS011;34673;52.808;17.856;2022-11-11T19:01:09;16.63;;;7.50;;
48853;SDS011;34673;52.808;17.856;2022-11-11T19:03:58;18.50;;;7.40;;
48853;SDS011;34673;52.808;17.856;2022-11-11T19:06:46;13.88;;;7.45;;
48853;SDS011;34673;52.808;17.856;2022-11-11T19:09:33;14.18;;;7.00;;
48853;SDS011;34673;52.808;17.856;2022-11-11T19:12:18;14.25;;;6.85;;
48853;SDS011;34673;52.808;17.856;2022-11-11T19:15:04;14.05;;;5.97;;
48853;SDS011;34673;52.808;17.856;2022-11-11T19:17:50;16.33;;;6.22;;
48853;SDS011;34673;52.808;17.856;2022-11-11T19:20:36;17.10;;;6.93;;